createdAt,value
2019-02-16T00:02:32.921Z,34.07
2019-02-16T00:12:38.435Z,30.90
2019-02-16T00:22:43.838Z,32.10
2019-02-16T00:32:49.772Z,36.77
2019-02-16T00:42:55.057Z,33.37
2019-02-16T00:53:00.352Z,31.50
2019-02-16T01:03:05.628Z,28.87
2019-02-16T01:13:10.989Z,28.57
2019-02-16T01:23:16.471Z,26.47
2019-02-16T01:33:21.807Z,23.70
2019-02-16T01:43:27.334Z,25.53
2019-02-16T01:53:32.918Z,23.07
2019-02-16T02:03:38.254Z,23.90
2019-02-16T02:13:43.590Z,23.10
2019-02-16T02:23:50.179Z,23.97
2019-02-16T02:33:55.691Z,21.50
2019-02-16T02:44:01.075Z,17.83
2019-02-16T02:54:06.553Z,19.10
2019-02-16T03:04:12.073Z,16.70
2019-02-16T03:14:17.388Z,15.67
2019-02-16T03:24:22.737Z,16.10
2019-02-16T03:34:35.567Z,16.83
2019-02-16T03:44:40.863Z,14.03
2019-02-16T03:54:46.214Z,14.67
2019-02-16T04:04:51.550Z,14.70
2019-02-16T04:14:56.869Z,12.77
2019-02-16T04:25:02.232Z,12.40
2019-02-16T04:35:08.017Z,11.97
2019-02-16T04:45:13.290Z,11.83
2019-02-16T04:55:18.628Z,11.47
2019-02-16T05:05:24.211Z,12.13
2019-02-16T05:15:29.532Z,12.10
2019-02-16T05:25:34.896Z,12.27
2019-02-16T05:35:40.292Z,13.90
2019-02-16T05:45:45.940Z,12.23
2019-02-16T05:55:51.283Z,12.23
2019-02-16T06:05:56.664Z,13.43
2019-02-16T06:16:02.013Z,13.10
2019-02-16T06:26:07.410Z,12.23
2019-02-16T06:36:37.768Z,14.10
2019-02-16T06:46:43.312Z,16.03
2019-02-16T06:57:04.068Z,13.37
2019-02-16T07:07:09.518Z,14.97
2019-02-16T07:17:32.250Z,13.37
2019-02-16T07:27:37.620Z,14.37
2019-02-16T07:37:42.947Z,13.30
2019-02-16T07:48:13.306Z,14.10
2019-02-16T07:58:30.378Z,12.30
2019-02-16T08:08:54.739Z,12.53
2019-02-16T08:19:10.773Z,14.03
2019-02-16T08:29:47.163Z,14.17
2019-02-16T08:40:06.341Z,15.87
2019-02-16T08:50:23.624Z,15.43
2019-02-16T09:00:40.033Z,16.43
2019-02-16T09:11:04.604Z,17.53
2019-02-16T09:21:23.883Z,16.87
2019-02-16T09:31:48.373Z,18.20
2019-02-16T09:42:18.609Z,18.90
2019-02-16T09:52:54.793Z,17.93
2019-02-16T10:03:22.141Z,21.10
2019-02-16T10:13:45.103Z,19.77
2019-02-16T10:24:17.555Z,18.57
2019-02-16T10:34:30.838Z,18.37
2019-02-16T10:44:55.152Z,20.70
2019-02-16T10:55:28.313Z,19.97
2019-02-16T11:05:45.472Z,22.80
2019-02-16T11:16:27.687Z,19.40
2019-02-16T11:26:39.844Z,17.97
2019-02-16T11:37:05.920Z,17.17
2019-02-16T11:47:25.295Z,19.30
2019-02-16T11:57:41.748Z,17.70
2019-02-16T12:08:04.641Z,20.13
2019-02-16T12:18:35.105Z,16.90
2019-02-16T12:29:02.397Z,17.27
2019-02-16T12:39:25.391Z,16.80
2019-02-16T12:49:41.974Z,16.17
2019-02-16T13:00:04.648Z,15.97
2019-02-16T13:10:27.642Z,16.60
2019-02-16T13:20:50.007Z,17.40
2019-02-16T13:31:13.046Z,16.57
2019-02-16T13:41:46.588Z,16.60
2019-02-16T13:52:17.197Z,16.87
2019-02-16T14:02:44.566Z,17.10
2019-02-16T14:13:15.112Z,17.10
2019-02-16T14:23:20.672Z,16.73
2019-02-16T14:33:26.236Z,17.80
2019-02-16T14:43:33.665Z,16.47
2019-02-16T14:53:39.340Z,17.10
2019-02-16T15:03:44.881Z,18.77
2019-02-16T15:13:50.471Z,19.43
2019-02-16T15:23:56.131Z,19.20
2019-02-16T15:34:01.532Z,20.93
2019-02-16T15:44:06.932Z,22.77
2019-02-16T15:54:12.481Z,23.43
2019-02-16T16:04:18.451Z,25.43
2019-02-16T16:14:43.071Z,23.23
2019-02-16T16:24:59.275Z,24.90
2019-02-16T16:35:15.281Z,26.53
2019-02-16T16:45:39.861Z,26.23
2019-02-16T16:55:53.459Z,27.53
2019-02-16T17:06:17.992Z,28.57
2019-02-16T17:16:41.324Z,28.27
2019-02-16T17:26:52.639Z,28.40
2019-02-16T17:37:10.529Z,28.83
2019-02-16T17:47:33.641Z,29.73
2019-02-16T17:57:46.970Z,30.07
2019-02-16T18:08:17.422Z,29.27
2019-02-16T18:18:40.453Z,31.07
2019-02-16T18:29:00.141Z,32.03
2019-02-16T18:39:24.177Z,28.70
2019-02-16T18:50:00.406Z,31.33
2019-02-16T19:00:27.924Z,31.87
2019-02-16T19:10:50.793Z,30.57
2019-02-16T19:21:22.009Z,30.27
2019-02-16T19:31:46.532Z,31.07
2019-02-16T19:42:09.342Z,28.63
2019-02-16T19:52:36.422Z,26.20
2019-02-16T20:03:03.570Z,26.13
2019-02-16T20:13:35.754Z,27.17
2019-02-16T20:24:03.313Z,24.07
2019-02-16T20:34:33.615Z,23.70
2019-02-16T20:45:09.706Z,20.07
2019-02-16T20:55:24.104Z,22.43
2019-02-16T21:06:03.858Z,27.93
2019-02-16T21:16:43.085Z,25.70
2019-02-16T21:27:04.473Z,21.83
2019-02-16T21:37:22.529Z,20.43
2019-02-16T21:47:36.808Z,22.63
2019-02-16T21:58:07.833Z,26.33
2019-02-16T22:08:18.603Z,19.77
2019-02-16T22:18:24.089Z,18.83
2019-02-16T22:28:31.175Z,20.43
2019-02-16T22:38:36.631Z,22.20
2019-02-16T22:48:42.049Z,20.30
2019-02-16T22:58:47.567Z,18.43
2019-02-16T23:08:53.351Z,18.00
2019-02-16T23:18:58.877Z,16.50
2019-02-16T23:29:04.552Z,16.83
2019-02-16T23:39:10.556Z,16.17
2019-02-16T23:49:16.050Z,16.57
2019-02-16T23:59:21.418Z,15.93
